sensor_id;sensor_type;location;lat;lon;timestamp;temperature;humidity
12053;DHT22;6087;48.982;12.064;2022-09-02T00:01:24;15.30;99.90
12053;DHT22;6087;48.982;12.064;2022-09-02T00:03:54;15.40;99.90
12053;DHT22;6087;48.982;12.064;2022-09-02T00:06:23;15.40;99.90
12053;DHT22;6087;48.982;12.064;2022-09-02T00:08:50;15.30;99.90
12053;DHT22;6087;48.982;12.064;2022-09-02T00:11:20;15.30;99.90
12053;DHT22;6087;48.982;12.064;2022-09-02T00:13:48;15.30;99.90
12053;DHT22;6087;48.982;12.064;2022-09-02T00:16:15;15.20;99.90
12053;DHT22;6087;48.982;12.064;2022-09-02T00:18:42;15.20;99.90
12053;DHT22;6087;48.982;12.064;2022-09-02T00:21:10;15.20;99.90
12053;DHT22;6087;48.982;12.064;2022-09-02T00:23:41;15.10;99.90
12053;DHT22;6087;48.982;12.064;2022-09-02T00:26:08;15.10;99.90
12053;DHT22;6087;48.982;12.064;2022-09-02T00:28:35;15.10;99.90
12053;DHT22;6087;48.982;12.064;2022-09-02T00:31:02;15.00;99.90
12053;DHT22;6087;48.982;12.064;2022-09-02T00:33:29;15.00;99.90
12053;DHT22;6087;48.982;12.064;2022-09-02T00:35:58;15.00;99.90
12053;DHT22;6087;48.982;12.064;2022-09-02T00:38:25;15.00;99.90
12053;DHT22;6087;48.982;12.064;2022-09-02T00:40:53;14.90;99.90
12053;DHT22;6087;48.982;12.064;2022-09-02T00:43:24;15.00;99.90
12053;DHT22;6087;48.982;12.064;2022-09-02T00:45:52;14.90;99.90
12053;DHT22;6087;48.982;12.064;2022-09-02T00:48:21;14.90;99.90
12053;DHT22;6087;48.982;12.064;2022-09-02T00:50:48;14.90;99.90
12053;DHT22;6087;48.982;12.064;2022-09-02T00:53:16;14.80;99.90
12053;DHT22;6087;48.982;12.064;2022-09-02T00:55:45;14.80;99.90
12053;DHT22;6087;48.982;12.064;2022-09-02T00:58:18;14.80;99.90
12053;DHT22;6087;48.982;12.064;2022-09-02T01:00:47;14.80;99.90
12053;DHT22;6087;48.982;12.064;2022-09-02T01:03:19;14.80;99.90
12053;DHT22;6087;48.982;12.064;2022-09-02T01:05:48;14.80;99.90
12053;DHT22;6087;48.982;12.064;2022-09-02T01:08:18;14.80;99.90
12053;DHT22;6087;48.982;12.064;2022-09-02T01:10:46;14.80;99.90
12053;DHT22;6087;48.982;12.064;2022-09-02T01:13:18;14.80;99.90
12053;DHT22;6087;48.982;12.064;2022-09-02T01:15:47;14.80;99.90
12053;DHT22;6087;48.982;12.064;2022-09-02T01:18:18;14.70;99.90
12053;DHT22;6087;48.982;12.064;2022-09-02T01:21:17;14.70;99.90
12053;DHT22;6087;48.982;12.064;2022-09-02T01:23:46;14.70;99.90
12053;DHT22;6087;48.982;12.064;2022-09-02T01:26:14;14.70;99.90
12053;DHT22;6087;48.982;12.064;2022-09-02T01:28:41;14.60;99.90
12053;DHT22;6087;48.982;12.064;2022-09-02T01:31:08;14.70;99.90
12053;DHT22;6087;48.982;12.064;2022-09-02T01:33:35;14.70;99.90
12053;DHT22;6087;48.982;12.064;2022-09-02T01:36:03;14.60;99.90
12053;DHT22;6087;48.982;12.064;2022-09-02T01:38:30;14.60;99.90
12053;DHT22;6087;48.982;12.064;2022-09-02T01:40:59;14.60;99.90
12053;DHT22;6087;48.982;12.064;2022-09-02T01:43:27;14.60;99.90
12053;DHT22;6087;48.982;12.064;2022-09-02T01:45:56;14.60;99.90
12053;DHT22;6087;48.982;12.064;2022-09-02T01:48:23;14.60;99.90
12053;DHT22;6087;48.982;12.064;2022-09-02T01:50:53;14.60;99.90
12053;DHT22;6087;48.982;12.064;2022-09-02T01:53:20;14.50;99.90
12053;DHT22;6087;48.982;12.064;2022-09-02T01:55:47;14.50;99.90
12053;DHT22;6087;48.982;12.064;2022-09-02T01:58:16;14.50;99.90
12053;DHT22;6087;48.982;12.064;2022-09-02T02:00:44;14.40;99.90
12053;DHT22;6087;48.982;12.064;2022-09-02T02:03:11;14.30;99.90
12053;DHT22;6087;48.982;12.064;2022-09-02T02:05:38;14.30;99.90
12053;DHT22;6087;48.982;12.064;2022-09-02T02:08:05;14.40;99.90
12053;DHT22;6087;48.982;12.064;2022-09-02T02:10:32;14.30;99.90
12053;DHT22;6087;48.982;12.064;2022-09-02T02:12:59;14.30;99.90
12053;DHT22;6087;48.982;12.064;2022-09-02T02:15:28;14.30;99.90
12053;DHT22;6087;48.982;12.064;2022-09-02T02:17:55;14.30;99.90
12053;DHT22;6087;48.982;12.064;2022-09-02T02:20:23;14.30;99.90
12053;DHT22;6087;48.982;12.064;2022-09-02T02:22:51;14.30;99.90
12053;DHT22;6087;48.982;12.064;2022-09-02T02:25:18;14.20;99.90
12053;DHT22;6087;48.982;12.064;2022-09-02T02:27:45;14.20;99.90
12053;DHT22;6087;48.982;12.064;2022-09-02T02:30:15;14.20;99.90
12053;DHT22;6087;48.982;12.064;2022-09-02T02:32:44;14.20;99.90
12053;DHT22;6087;48.982;12.064;2022-09-02T02:35:11;14.10;99.90
12053;DHT22;6087;48.982;12.064;2022-09-02T02:37:38;14.10;99.90
12053;DHT22;6087;48.982;12.064;2022-09-02T02:40:06;14.20;99.90
12053;DHT22;6087;48.982;12.064;2022-09-02T02:42:35;14.10;99.90
12053;DHT22;6087;48.982;12.064;2022-09-02T02:45:03;14.10;99.90
12053;DHT22;6087;48.982;12.064;2022-09-02T02:47:36;14.10;99.90
12053;DHT22;6087;48.982;12.064;2022-09-02T02:50:05;14.10;99.90
12053;DHT22;6087;48.982;12.064;2022-09-02T02:52:32;14.00;99.90
12053;DHT22;6087;48.982;12.064;2022-09-02T02:54:59;14.00;99.90
12053;DHT22;6087;48.982;12.064;2022-09-02T02:57:26;13.90;99.90
12053;DHT22;6087;48.982;12.064;2022-09-02T02:59:53;13.90;99.90
12053;DHT22;6087;48.982;12.064;2022-09-02T03:02:22;13.90;99.90
12053;DHT22;6087;48.982;12.064;2022-09-02T03:04:49;13.90;99.90
12053;DHT22;6087;48.982;12.064;2022-09-02T03:07:20;13.90;99.90
12053;DHT22;6087;48.982;12.064;2022-09-02T03:09:47;13.90;99.90
12053;DHT22;6087;48.982;12.064;2022-09-02T03:12:13;13.90;99.90
12053;DHT22;6087;48.982;12.064;2022-09-02T03:14:41;13.80;99.90
12053;DHT22;6087;48.982;12.064;2022-09-02T03:17:08;13.80;99.90
12053;DHT22;6087;48.982;12.064;2022-09-02T03:19:35;13.80;99.90
12053;DHT22;6087;48.982;12.064;2022-09-02T03:22:03;13.80;99.90
12053;DHT22;6087;48.982;12.064;2022-09-02T03:24:31;13.70;99.90
12053;DHT22;6087;48.982;12.064;2022-09-02T03:26:59;13.70;99.90
12053;DHT22;6087;48.982;12.064;2022-09-02T03:29:25;13.80;99.90
12053;DHT22;6087;48.982;12.064;2022-09-02T03:31:52;13.80;99.90
12053;DHT22;6087;48.982;12.064;2022-09-02T03:34:19;13.80;99.90
12053;DHT22;6087;48.982;12.064;2022-09-02T03:36:46;13.80;99.90
12053;DHT22;6087;48.982;12.064;2022-09-02T03:39:13;13.80;99.90
12053;DHT22;6087;48.982;12.064;2022-09-02T03:41:41;13.80;99.90
12053;DHT22;6087;48.982;12.064;2022-09-02T03:44:09;13.80;99.90
12053;DHT22;6087;48.982;12.064;2022-09-02T03:46:36;13.80;99.90
12053;DHT22;6087;48.982;12.064;2022-09-02T03:49:03;13.80;99.90
12053;DHT22;6087;48.982;12.064;2022-09-02T03:51:30;13.80;99.90
12053;DHT22;6087;48.982;12.064;2022-09-02T03:53:57;13.80;99.90
12053;DHT22;6087;48.982;12.064;2022-09-02T03:56:24;13.80;99.90
12053;DHT22;6087;48.982;12.064;2022-09-02T03:58:52;13.80;99.90
12053;DHT22;6087;48.982;12.064;2022-09-02T04:01:22;13.80;99.90
12053;DHT22;6087;48.982;12.064;2022-09-02T04:03:50;13.70;99.90
12053;DHT22;6087;48.982;12.064;2022-09-02T04:06:18;13.70;99.90
12053;DHT22;6087;48.982;12.064;2022-09-02T04:08:46;13.60;99.90
12053;DHT22;6087;48.982;12.064;2022-09-02T04:11:16;13.60;99.90
12053;DHT22;6087;48.982;12.064;2022-09-02T04:13:44;13.60;99.90
12053;DHT22;6087;48.982;12.064;2022-09-02T04:16:14;13.60;99.90
12053;DHT22;6087;48.982;12.064;2022-09-02T04:18:41;13.50;99.90
12053;DHT22;6087;48.982;12.064;2022-09-02T04:21:08;13.50;99.90
12053;DHT22;6087;48.982;12.064;2022-09-02T04:23:36;13.50;99.90
12053;DHT22;6087;48.982;12.064;2022-09-02T04:26:04;13.50;99.90
12053;DHT22;6087;48.982;12.064;2022-09-02T04:28:31;13.50;99.90
12053;DHT22;6087;48.982;12.064;2022-09-02T04:30:58;13.50;99.90
12053;DHT22;6087;48.982;12.064;2022-09-02T04:33:26;13.50;99.90
12053;DHT22;6087;48.982;12.064;2022-09-02T04:35:53;13.50;99.90
12053;DHT22;6087;48.982;12.064;2022-09-02T04:38:20;13.40;99.90
12053;DHT22;6087;48.982;12.064;2022-09-02T04:40:47;13.40;99.90
12053;DHT22;6087;48.982;12.064;2022-09-02T04:43:14;13.40;99.90
12053;DHT22;6087;48.982;12.064;2022-09-02T04:45:43;13.40;99.90
12053;DHT22;6087;48.982;12.064;2022-09-02T04:48:10;13.40;99.90
12053;DHT22;6087;48.982;12.064;2022-09-02T04:50:40;13.40;99.90
12053;DHT22;6087;48.982;12.064;2022-09-02T04:53:07;13.40;99.90
12053;DHT22;6087;48.982;12.064;2022-09-02T04:55:37;13.50;99.90
12053;DHT22;6087;48.982;12.064;2022-09-02T04:58:04;13.50;99.90
12053;DHT22;6087;48.982;12.064;2022-09-02T05:00:31;13.40;99.90
12053;DHT22;6087;48.982;12.064;2022-09-02T05:02:58;13.50;99.90
12053;DHT22;6087;48.982;12.064;2022-09-02T05:05:25;13.50;99.90
12053;DHT22;6087;48.982;12.064;2022-09-02T05:07:53;13.40;99.90
12053;DHT22;6087;48.982;12.064;2022-09-02T05:10:21;13.40;99.90
12053;DHT22;6087;48.982;12.064;2022-09-02T05:12:48;13.40;99.90
12053;DHT22;6087;48.982;12.064;2022-09-02T05:15:16;13.40;99.90
12053;DHT22;6087;48.982;12.064;2022-09-02T05:17:43;13.40;99.90
12053;DHT22;6087;48.982;12.064;2022-09-02T05:20:11;13.30;99.90
12053;DHT22;6087;48.982;12.064;2022-09-02T05:22:38;13.30;99.90
12053;DHT22;6087;48.982;12.064;2022-09-02T05:25:07;13.20;99.90
12053;DHT22;6087;48.982;12.064;2022-09-02T05:27:35;13.20;99.90
12053;DHT22;6087;48.982;12.064;2022-09-02T05:30:03;13.20;99.90
12053;DHT22;6087;48.982;12.064;2022-09-02T05:32:30;13.20;99.90
12053;DHT22;6087;48.982;12.064;2022-09-02T05:34:57;13.30;99.90
12053;DHT22;6087;48.982;12.064;2022-09-02T05:37:24;13.30;99.90
12053;DHT22;6087;48.982;12.064;2022-09-02T05:39:51;13.40;99.90
12053;DHT22;6087;48.982;12.064;2022-09-02T05:42:20;13.40;99.90
12053;DHT22;6087;48.982;12.064;2022-09-02T05:44:47;13.40;99.90
12053;DHT22;6087;48.982;12.064;2022-09-02T05:47:14;13.40;99.90
12053;DHT22;6087;48.982;12.064;2022-09-02T05:49:41;13.40;99.90
12053;DHT22;6087;48.982;12.064;2022-09-02T05:52:07;13.50;99.90
12053;DHT22;6087;48.982;12.064;2022-09-02T05:54:37;13.50;99.90
12053;DHT22;6087;48.982;12.064;2022-09-02T05:57:06;13.60;99.90
12053;DHT22;6087;48.982;12.064;2022-09-02T05:59:36;13.60;99.90
12053;DHT22;6087;48.982;12.064;2022-09-02T06:02:07;13.60;99.90
12053;DHT22;6087;48.982;12.064;2022-09-02T06:04:37;13.70;99.90
12053;DHT22;6087;48.982;12.064;2022-09-02T06:07:04;13.70;99.90
12053;DHT22;6087;48.982;12.064;2022-09-02T06:09:31;13.80;99.90
12053;DHT22;6087;48.982;12.064;2022-09-02T06:11:58;13.90;99.90
12053;DHT22;6087;48.982;12.064;2022-09-02T06:14:25;13.90;99.90
12053;DHT22;6087;48.982;12.064;2022-09-02T06:16:55;14.00;99.90
12053;DHT22;6087;48.982;12.064;2022-09-02T06:19:24;14.00;99.90
12053;DHT22;6087;48.982;12.064;2022-09-02T06:21:52;14.10;99.90
12053;DHT22;6087;48.982;12.064;2022-09-02T06:24:19;14.20;99.90
12053;DHT22;6087;48.982;12.064;2022-09-02T06:26:46;14.20;99.90
12053;DHT22;6087;48.982;12.064;2022-09-02T06:29:13;14.20;99.90
12053;DHT22;6087;48.982;12.064;2022-09-02T06:31:41;14.20;99.90
12053;DHT22;6087;48.982;12.064;2022-09-02T06:34:11;14.30;99.90
12053;DHT22;6087;48.982;12.064;2022-09-02T06:36:40;14.40;99.90
12053;DHT22;6087;48.982;12.064;2022-09-02T06:39:10;14.40;99.90
12053;DHT22;6087;48.982;12.064;2022-09-02T06:41:38;14.40;99.90
12053;DHT22;6087;48.982;12.064;2022-09-02T06:44:07;14.50;99.90
12053;DHT22;6087;48.982;12.064;2022-09-02T06:46:36;14.50;99.90
12053;DHT22;6087;48.982;12.064;2022-09-02T06:49:05;14.60;99.90
12053;DHT22;6087;48.982;12.064;2022-09-02T06:51:36;14.60;99.90
12053;DHT22;6087;48.982;12.064;2022-09-02T06:54:05;14.70;99.90
12053;DHT22;6087;48.982;12.064;2022-09-02T06:56:33;14.70;99.90
12053;DHT22;6087;48.982;12.064;2022-09-02T06:59:01;14.80;99.90
12053;DHT22;6087;48.982;12.064;2022-09-02T07:01:30;14.80;99.90
12053;DHT22;6087;48.982;12.064;2022-09-02T07:03:57;14.90;99.90
12053;DHT22;6087;48.982;12.064;2022-09-02T07:06:44;14.90;99.90
12053;DHT22;6087;48.982;12.064;2022-09-02T07:09:14;15.00;99.90
12053;DHT22;6087;48.982;12.064;2022-09-02T07:11:41;15.00;99.90
12053;DHT22;6087;48.982;12.064;2022-09-02T07:14:12;15.10;99.90
12053;DHT22;6087;48.982;12.064;2022-09-02T07:16:43;15.10;99.90
12053;DHT22;6087;48.982;12.064;2022-09-02T07:19:10;15.20;99.90
12053;DHT22;6087;48.982;12.064;2022-09-02T07:21:37;15.20;99.90
12053;DHT22;6087;48.982;12.064;2022-09-02T07:24:07;15.30;99.90
12053;DHT22;6087;48.982;12.064;2022-09-02T07:26:34;15.30;99.90
12053;DHT22;6087;48.982;12.064;2022-09-02T07:29:02;15.40;99.90
12053;DHT22;6087;48.982;12.064;2022-09-02T07:31:29;15.40;99.90
12053;DHT22;6087;48.982;12.064;2022-09-02T07:33:56;15.50;99.90
12053;DHT22;6087;48.982;12.064;2022-09-02T07:36:23;15.50;99.90
12053;DHT22;6087;48.982;12.064;2022-09-02T07:38:51;15.50;99.90
12053;DHT22;6087;48.982;12.064;2022-09-02T07:41:20;15.60;99.90
12053;DHT22;6087;48.982;12.064;2022-09-02T07:43:48;15.60;99.90
12053;DHT22;6087;48.982;12.064;2022-09-02T07:46:15;15.70;99.90
12053;DHT22;6087;48.982;12.064;2022-09-02T07:48:42;15.70;99.90
12053;DHT22;6087;48.982;12.064;2022-09-02T07:51:10;15.70;99.90
12053;DHT22;6087;48.982;12.064;2022-09-02T07:53:37;15.80;99.90
12053;DHT22;6087;48.982;12.064;2022-09-02T07:56:04;15.80;99.90
12053;DHT22;6087;48.982;12.064;2022-09-02T07:58:33;15.90;99.90
12053;DHT22;6087;48.982;12.064;2022-09-02T08:01:00;15.90;99.90
12053;DHT22;6087;48.982;12.064;2022-09-02T08:03:27;15.90;99.90
12053;DHT22;6087;48.982;12.064;2022-09-02T08:05:55;16.00;99.90
12053;DHT22;6087;48.982;12.064;2022-09-02T08:08:23;16.00;99.90
12053;DHT22;6087;48.982;12.064;2022-09-02T08:10:53;16.10;99.90
12053;DHT22;6087;48.982;12.064;2022-09-02T08:13:20;16.10;99.90
12053;DHT22;6087;48.982;12.064;2022-09-02T08:15:48;16.10;99.90
12053;DHT22;6087;48.982;12.064;2022-09-02T08:18:16;16.20;99.90
12053;DHT22;6087;48.982;12.064;2022-09-02T08:20:42;16.20;99.90
12053;DHT22;6087;48.982;12.064;2022-09-02T08:23:09;16.20;99.90
12053;DHT22;6087;48.982;12.064;2022-09-02T08:25:37;16.30;99.90
12053;DHT22;6087;48.982;12.064;2022-09-02T08:28:05;16.30;99.90
12053;DHT22;6087;48.982;12.064;2022-09-02T08:30:33;16.30;99.90
12053;DHT22;6087;48.982;12.064;2022-09-02T08:33:01;16.40;99.90
12053;DHT22;6087;48.982;12.064;2022-09-02T08:35:28;16.40;99.50
12053;DHT22;6087;48.982;12.064;2022-09-02T08:37:57;16.40;99.90
12053;DHT22;6087;48.982;12.064;2022-09-02T08:40:29;16.50;99.90
12053;DHT22;6087;48.982;12.064;2022-09-02T08:43:00;16.50;98.70
12053;DHT22;6087;48.982;12.064;2022-09-02T08:45:30;16.50;99.40
12053;DHT22;6087;48.982;12.064;2022-09-02T08:48:06;16.60;98.80
12053;DHT22;6087;48.982;12.064;2022-09-02T08:50:36;16.60;99.30
12053;DHT22;6087;48.982;12.064;2022-09-02T08:53:10;16.70;99.20
12053;DHT22;6087;48.982;12.064;2022-09-02T08:55:44;16.70;99.30
12053;DHT22;6087;48.982;12.064;2022-09-02T08:58:16;16.70;99.70
12053;DHT22;6087;48.982;12.064;2022-09-02T09:00:49;16.70;99.20
12053;DHT22;6087;48.982;12.064;2022-09-02T09:03:24;16.80;99.20
12053;DHT22;6087;48.982;12.064;2022-09-02T09:05:58;16.80;98.80
12053;DHT22;6087;48.982;12.064;2022-09-02T09:08:32;16.80;97.90
12053;DHT22;6087;48.982;12.064;2022-09-02T09:11:03;16.80;96.60
12053;DHT22;6087;48.982;12.064;2022-09-02T09:13:45;16.90;96.80
12053;DHT22;6087;48.982;12.064;2022-09-02T09:16:21;16.90;97.00
12053;DHT22;6087;48.982;12.064;2022-09-02T09:18:59;16.90;96.30
12053;DHT22;6087;48.982;12.064;2022-09-02T09:21:30;16.90;96.00
12053;DHT22;6087;48.982;12.064;2022-09-02T09:23:59;17.00;95.70
12053;DHT22;6087;48.982;12.064;2022-09-02T09:26:28;17.00;95.40
12053;DHT22;6087;48.982;12.064;2022-09-02T09:28:58;17.00;95.70
12053;DHT22;6087;48.982;12.064;2022-09-02T09:31:28;17.00;95.40
12053;DHT22;6087;48.982;12.064;2022-09-02T09:34:01;17.00;95.00
12053;DHT22;6087;48.982;12.064;2022-09-02T09:36:46;17.10;95.20
12053;DHT22;6087;48.982;12.064;2022-09-02T09:39:25;17.10;95.10
12053;DHT22;6087;48.982;12.064;2022-09-02T09:41:54;17.10;93.50
12053;DHT22;6087;48.982;12.064;2022-09-02T09:44:43;17.10;92.40
12053;DHT22;6087;48.982;12.064;2022-09-02T09:47:14;17.20;93.60
12053;DHT22;6087;48.982;12.064;2022-09-02T09:49:46;17.20;94.40
12053;DHT22;6087;48.982;12.064;2022-09-02T09:52:24;17.20;92.10
12053;DHT22;6087;48.982;12.064;2022-09-02T09:55:13;17.30;91.20
12053;DHT22;6087;48.982;12.064;2022-09-02T09:57:42;17.30;91.10
12053;DHT22;6087;48.982;12.064;2022-09-02T10:00:18;17.40;92.40
12053;DHT22;6087;48.982;12.064;2022-09-02T10:02:47;17.40;90.20
12053;DHT22;6087;48.982;12.064;2022-09-02T10:05:31;17.50;90.90
12053;DHT22;6087;48.982;12.064;2022-09-02T10:08:00;17.50;90.30
12053;DHT22;6087;48.982;12.064;2022-09-02T10:10:29;17.50;90.10
12053;DHT22;6087;48.982;12.064;2022-09-02T10:12:59;17.60;89.70
12053;DHT22;6087;48.982;12.064;2022-09-02T10:15:33;17.60;88.40
12053;DHT22;6087;48.982;12.064;2022-09-02T10:18:11;17.60;88.30
12053;DHT22;6087;48.982;12.064;2022-09-02T10:20:50;17.60;88.80
12053;DHT22;6087;48.982;12.064;2022-09-02T10:23:35;17.70;90.00
12053;DHT22;6087;48.982;12.064;2022-09-02T10:26:11;17.70;90.30
12053;DHT22;6087;48.982;12.064;2022-09-02T10:29:01;17.80;89.90
12053;DHT22;6087;48.982;12.064;2022-09-02T10:31:38;17.90;91.20
12053;DHT22;6087;48.982;12.064;2022-09-02T10:34:14;18.10;92.40
12053;DHT22;6087;48.982;12.064;2022-09-02T10:37:05;18.10;91.30
12053;DHT22;6087;48.982;12.064;2022-09-02T10:39:50;18.20;89.20
12053;DHT22;6087;48.982;12.064;2022-09-02T10:42:26;18.20;90.40
12053;DHT22;6087;48.982;12.064;2022-09-02T10:45:03;18.20;90.20
12053;DHT22;6087;48.982;12.064;2022-09-02T10:47:35;18.30;87.80
12053;DHT22;6087;48.982;12.064;2022-09-02T10:50:10;18.40;87.70
12053;DHT22;6087;48.982;12.064;2022-09-02T10:55:44;18.50;88.60
12053;DHT22;6087;48.982;12.064;2022-09-02T10:58:18;18.60;88.60
12053;DHT22;6087;48.982;12.064;2022-09-02T11:00:49;18.70;90.10
12053;DHT22;6087;48.982;12.064;2022-09-02T11:03:22;18.80;90.20
12053;DHT22;6087;48.982;12.064;2022-09-02T11:05:51;19.00;89.10
12053;DHT22;6087;48.982;12.064;2022-09-02T11:08:23;19.10;90.10
12053;DHT22;6087;48.982;12.064;2022-09-02T11:11:00;19.20;88.20
12053;DHT22;6087;48.982;12.064;2022-09-02T11:13:36;19.20;87.10
12053;DHT22;6087;48.982;12.064;2022-09-02T11:16:07;19.20;83.00
12053;DHT22;6087;48.982;12.064;2022-09-02T11:18:40;19.20;85.60
12053;DHT22;6087;48.982;12.064;2022-09-02T11:21:18;19.20;84.10
12053;DHT22;6087;48.982;12.064;2022-09-02T11:23:56;19.30;84.30
12053;DHT22;6087;48.982;12.064;2022-09-02T11:26:30;19.40;85.20
12053;DHT22;6087;48.982;12.064;2022-09-02T11:29:03;19.40;85.60
12053;DHT22;6087;48.982;12.064;2022-09-02T11:31:34;19.50;85.70
12053;DHT22;6087;48.982;12.064;2022-09-02T11:34:10;19.60;82.60
12053;DHT22;6087;48.982;12.064;2022-09-02T11:36:40;19.60;84.10
12053;DHT22;6087;48.982;12.064;2022-09-02T11:39:10;19.70;82.30
12053;DHT22;6087;48.982;12.064;2022-09-02T11:41:59;19.80;82.30
12053;DHT22;6087;48.982;12.064;2022-09-02T11:45:14;19.80;80.90
12053;DHT22;6087;48.982;12.064;2022-09-02T11:53:39;20.10;83.50
12053;DHT22;6087;48.982;12.064;2022-09-02T11:56:11;20.20;81.60
12053;DHT22;6087;48.982;12.064;2022-09-02T11:58:41;20.30;81.60
12053;DHT22;6087;48.982;12.064;2022-09-02T12:01:28;20.50;80.10
12053;DHT22;6087;48.982;12.064;2022-09-02T12:04:01;20.60;79.80
12053;DHT22;6087;48.982;12.064;2022-09-02T12:06:28;20.70;80.60
12053;DHT22;6087;48.982;12.064;2022-09-02T12:09:01;20.80;78.70
12053;DHT22;6087;48.982;12.064;2022-09-02T12:11:40;20.90;78.60
12053;DHT22;6087;48.982;12.064;2022-09-02T12:14:10;21.00;81.10
12053;DHT22;6087;48.982;12.064;2022-09-02T12:16:42;21.10;80.00
12053;DHT22;6087;48.982;12.064;2022-09-02T12:19:24;21.20;81.50
12053;DHT22;6087;48.982;12.064;2022-09-02T12:24:56;21.30;76.40
12053;DHT22;6087;48.982;12.064;2022-09-02T12:27:29;21.50;78.20
12053;DHT22;6087;48.982;12.064;2022-09-02T12:30:00;21.60;76.90
12053;DHT22;6087;48.982;12.064;2022-09-02T12:35:53;21.90;74.20
12053;DHT22;6087;48.982;12.064;2022-09-02T12:38:37;22.10;75.90
12053;DHT22;6087;48.982;12.064;2022-09-02T12:41:23;22.20;73.70
12053;DHT22;6087;48.982;12.064;2022-09-02T12:44:06;22.30;75.00
12053;DHT22;6087;48.982;12.064;2022-09-02T12:46:49;22.50;75.20
12053;DHT22;6087;48.982;12.064;2022-09-02T12:49:39;22.60;74.30
12053;DHT22;6087;48.982;12.064;2022-09-02T12:52:08;22.70;74.60
12053;DHT22;6087;48.982;12.064;2022-09-02T12:54:41;22.80;78.60
12053;DHT22;6087;48.982;12.064;2022-09-02T12:57:12;23.00;76.20
12053;DHT22;6087;48.982;12.064;2022-09-02T12:59:42;23.00;72.20
12053;DHT22;6087;48.982;12.064;2022-09-02T13:02:25;23.10;73.80
12053;DHT22;6087;48.982;12.064;2022-09-02T13:05:04;23.20;73.30
12053;DHT22;6087;48.982;12.064;2022-09-02T13:08:11;23.30;71.10
12053;DHT22;6087;48.982;12.064;2022-09-02T13:16:49;23.10;69.40
12053;DHT22;6087;48.982;12.064;2022-09-02T13:19:42;23.20;72.00
12053;DHT22;6087;48.982;12.064;2022-09-02T13:22:32;23.10;69.40
12053;DHT22;6087;48.982;12.064;2022-09-02T13:25:55;23.20;69.40
12053;DHT22;6087;48.982;12.064;2022-09-02T13:28:53;23.40;69.40
12053;DHT22;6087;48.982;12.064;2022-09-02T13:31:23;23.60;68.10
12053;DHT22;6087;48.982;12.064;2022-09-02T13:33:57;23.80;69.00
12053;DHT22;6087;48.982;12.064;2022-09-02T13:36:28;23.80;67.20
12053;DHT22;6087;48.982;12.064;2022-09-02T13:38:56;23.90;69.40
12053;DHT22;6087;48.982;12.064;2022-09-02T13:41:35;23.90;67.90
12053;DHT22;6087;48.982;12.064;2022-09-02T13:44:07;23.90;64.40
12053;DHT22;6087;48.982;12.064;2022-09-02T13:46:42;23.90;65.40
12053;DHT22;6087;48.982;12.064;2022-09-02T13:49:17;24.00;62.70
12053;DHT22;6087;48.982;12.064;2022-09-02T13:51:46;23.90;57.30
12053;DHT22;6087;48.982;12.064;2022-09-02T13:54:25;24.00;61.50
12053;DHT22;6087;48.982;12.064;2022-09-02T13:56:54;24.10;63.00
12053;DHT22;6087;48.982;12.064;2022-09-02T13:59:36;24.10;63.70
12053;DHT22;6087;48.982;12.064;2022-09-02T14:02:23;23.90;63.80
12053;DHT22;6087;48.982;12.064;2022-09-02T14:04:53;23.90;62.80
12053;DHT22;6087;48.982;12.064;2022-09-02T14:07:27;23.90;62.70
12053;DHT22;6087;48.982;12.064;2022-09-02T14:09:54;23.80;60.30
12053;DHT22;6087;48.982;12.064;2022-09-02T14:12:24;23.90;59.90
12053;DHT22;6087;48.982;12.064;2022-09-02T14:14:52;23.90;62.90
12053;DHT22;6087;48.982;12.064;2022-09-02T14:17:21;23.90;61.80
12053;DHT22;6087;48.982;12.064;2022-09-02T14:19:49;23.90;58.30
12053;DHT22;6087;48.982;12.064;2022-09-02T14:22:26;23.90;56.90
12053;DHT22;6087;48.982;12.064;2022-09-02T14:24:53;23.90;58.30
12053;DHT22;6087;48.982;12.064;2022-09-02T14:27:22;23.90;59.00
12053;DHT22;6087;48.982;12.064;2022-09-02T14:29:53;23.90;57.80
12053;DHT22;6087;48.982;12.064;2022-09-02T14:32:22;23.90;57.30
12053;DHT22;6087;48.982;12.064;2022-09-02T14:35:17;23.80;56.50
12053;DHT22;6087;48.982;12.064;2022-09-02T14:37:51;23.80;56.60
12053;DHT22;6087;48.982;12.064;2022-09-02T14:40:31;23.70;56.50
12053;DHT22;6087;48.982;12.064;2022-09-02T14:42:59;23.70;54.50
12053;DHT22;6087;48.982;12.064;2022-09-02T14:45:28;23.60;54.50
12053;DHT22;6087;48.982;12.064;2022-09-02T14:47:57;23.60;55.10
12053;DHT22;6087;48.982;12.064;2022-09-02T14:50:27;23.50;51.40
12053;DHT22;6087;48.982;12.064;2022-09-02T14:52:59;23.40;53.50
12053;DHT22;6087;48.982;12.064;2022-09-02T14:55:49;23.20;54.40
12053;DHT22;6087;48.982;12.064;2022-09-02T14:58:18;23.20;54.10
12053;DHT22;6087;48.982;12.064;2022-09-02T15:00:46;23.10;55.50
12053;DHT22;6087;48.982;12.064;2022-09-02T15:03:15;23.10;54.60
12053;DHT22;6087;48.982;12.064;2022-09-02T15:05:42;23.00;54.10
12053;DHT22;6087;48.982;12.064;2022-09-02T15:08:11;23.00;51.50
12053;DHT22;6087;48.982;12.064;2022-09-02T15:10:39;22.90;52.50
12053;DHT22;6087;48.982;12.064;2022-09-02T15:13:08;22.90;52.50
12053;DHT22;6087;48.982;12.064;2022-09-02T15:15:36;22.90;51.10
12053;DHT22;6087;48.982;12.064;2022-09-02T15:18:03;22.80;52.00
12053;DHT22;6087;48.982;12.064;2022-09-02T15:20:30;22.80;52.30
12053;DHT22;6087;48.982;12.064;2022-09-02T15:22:57;22.70;52.70
12053;DHT22;6087;48.982;12.064;2022-09-02T15:25:25;22.70;51.00
12053;DHT22;6087;48.982;12.064;2022-09-02T15:27:52;22.60;51.00
12053;DHT22;6087;48.982;12.064;2022-09-02T15:30:19;22.60;53.80
12053;DHT22;6087;48.982;12.064;2022-09-02T15:32:46;22.50;52.80
12053;DHT22;6087;48.982;12.064;2022-09-02T15:35:14;22.40;53.30
12053;DHT22;6087;48.982;12.064;2022-09-02T15:37:41;22.40;53.60
12053;DHT22;6087;48.982;12.064;2022-09-02T15:40:09;22.40;53.50
12053;DHT22;6087;48.982;12.064;2022-09-02T15:42:38;22.30;53.50
12053;DHT22;6087;48.982;12.064;2022-09-02T15:45:06;22.30;54.30
12053;DHT22;6087;48.982;12.064;2022-09-02T15:47:34;22.20;50.30
12053;DHT22;6087;48.982;12.064;2022-09-02T15:50:03;22.20;51.90
12053;DHT22;6087;48.982;12.064;2022-09-02T15:52:30;22.20;52.30
12053;DHT22;6087;48.982;12.064;2022-09-02T15:54:57;22.20;52.90
12053;DHT22;6087;48.982;12.064;2022-09-02T15:57:24;22.10;52.70
12053;DHT22;6087;48.982;12.064;2022-09-02T15:59:52;22.00;51.50
12053;DHT22;6087;48.982;12.064;2022-09-02T16:02:19;22.00;49.50
12053;DHT22;6087;48.982;12.064;2022-09-02T16:04:46;22.00;49.90
12053;DHT22;6087;48.982;12.064;2022-09-02T16:07:12;21.90;50.90
12053;DHT22;6087;48.982;12.064;2022-09-02T16:09:39;21.90;49.10
12053;DHT22;6087;48.982;12.064;2022-09-02T16:12:07;21.90;52.40
12053;DHT22;6087;48.982;12.064;2022-09-02T16:14:34;21.80;51.50